Terminal Aerodrome Forecast
Issued by NWS

Home | Current Version | Previous Version | Text Only | Print | Product List | Glossary On
Versions: 1 2 3 4 5 6 7 8 9 10 11 12 13 14 15 16 17 18 19 20 21 22 23 24 25 26 27 28 29 30 31 32 33 34
000
FTUS43 KEAX 182019 AAA
TAFSTJ
TAF AMD
KSTJ 182019Z 1820/1918 07008KT 2SM -RADZ OVC005
     FM182200 07012KT 1SM -RASN OVC008
     FM190200 02016G24KT 1SM -SN BLSN OVC008
     FM190700 01019G31KT 2SM -SN BLSN OVC010
     FM191100 36021G33KT 4SM BLSN BKN015=

USA.gov is the U.S. government's official web portal to all federal, state and local government web resources and services.